createdAt,value
2018-12-15T00:02:09.074Z,50.60
2018-12-15T00:04:37.395Z,51.20
2018-12-15T00:07:05.662Z,51.60
2018-12-15T00:09:33.880Z,52.80
2018-12-15T00:12:02.219Z,53.20
2018-12-15T00:14:30.429Z,52.30
2018-12-15T00:17:05.552Z,53.30
2018-12-15T00:19:28.919Z,51.40
2018-12-15T00:21:57.147Z,51.50
2018-12-15T00:24:25.367Z,50.60
2018-12-15T00:26:53.514Z,51.90
2018-12-15T00:29:21.797Z,52.60
2018-12-15T00:31:50.150Z,51.90
2018-12-15T00:34:18.507Z,51.60
2018-12-15T00:36:46.731Z,50.70
2018-12-15T00:39:14.928Z,51.80
2018-12-15T00:41:43.199Z,51.90
2018-12-15T00:44:11.336Z,51.60
2018-12-15T00:46:39.651Z,51.20
2018-12-15T00:49:07.924Z,52.00
2018-12-15T00:51:36.182Z,49.80
2018-12-15T00:54:04.512Z,50.60
2018-12-15T00:56:32.815Z,49.90
2018-12-15T00:59:01.111Z,48.20
2018-12-15T01:01:29.368Z,48.70
2018-12-15T01:03:57.660Z,49.80
2018-12-15T01:06:26.124Z,48.30
2018-12-15T01:08:54.331Z,48.30
2018-12-15T01:11:22.584Z,48.10
2018-12-15T01:13:50.834Z,47.30
2018-12-15T01:23:17.316Z,47.40
2018-12-15T01:25:45.600Z,47.70
2018-12-15T01:28:13.850Z,48.20
2018-12-15T01:30:42.090Z,48.20
2018-12-15T01:33:10.322Z,47.90
2018-12-15T01:35:38.617Z,47.40
2018-12-15T01:38:06.980Z,48.10
2018-12-15T01:40:35.257Z,47.20
2018-12-15T01:43:03.540Z,46.40
2018-12-15T01:45:31.888Z,44.00
2018-12-15T01:48:00.192Z,45.80
2018-12-15T01:50:28.381Z,44.10
2018-12-15T01:52:56.565Z,44.30
2018-12-15T01:55:24.835Z,44.40
2018-12-15T01:57:53.228Z,45.00
2018-12-15T02:00:21.730Z,45.50
2018-12-15T02:02:49.936Z,43.10
2018-12-15T02:05:18.251Z,44.50
2018-12-15T02:07:46.493Z,43.70
2018-12-15T02:10:14.792Z,42.90
2018-12-15T02:12:43.116Z,43.50
2018-12-15T02:15:11.298Z,44.30
2018-12-15T02:17:39.524Z,44.00
2018-12-15T02:20:07.792Z,44.10
2018-12-15T02:22:36.013Z,43.40
2018-12-15T02:25:04.394Z,44.10
2018-12-15T02:27:32.655Z,45.40
2018-12-15T02:30:00.967Z,43.30
2018-12-15T02:32:29.233Z,42.40
2018-12-15T02:34:57.555Z,42.00
2018-12-15T02:37:25.901Z,44.20
2018-12-15T02:39:54.112Z,43.80
2018-12-15T02:42:22.388Z,44.80
2018-12-15T02:44:50.588Z,43.80
2018-12-15T02:47:18.828Z,44.00
2018-12-15T02:49:47.172Z,42.80
2018-12-15T02:52:15.470Z,43.80
2018-12-15T02:54:43.719Z,44.00
2018-12-15T02:57:11.957Z,43.30
2018-12-15T02:59:40.220Z,41.30
2018-12-15T03:02:08.608Z,42.80
2018-12-15T03:04:36.959Z,42.50
2018-12-15T03:07:05.252Z,42.20
2018-12-15T03:09:33.609Z,43.80
2018-12-15T03:12:02.838Z,43.40
2018-12-15T03:14:31.093Z,42.90
2018-12-15T03:17:04.911Z,42.80
2018-12-15T03:19:33.246Z,42.80
2018-12-15T03:22:01.510Z,43.90
2018-12-15T03:24:29.886Z,44.40
2018-12-15T03:26:58.191Z,44.70
2018-12-15T03:29:26.446Z,44.10
2018-12-15T03:31:54.718Z,45.20
2018-12-15T03:34:22.973Z,46.10
2018-12-15T03:36:51.233Z,45.10
2018-12-15T03:39:19.536Z,45.80
2018-12-15T03:41:48.060Z,45.70
2018-12-15T03:44:16.272Z,44.50
2018-12-15T03:46:44.582Z,45.20
2018-12-15T03:49:12.790Z,46.40
2018-12-15T03:51:41.162Z,45.40
2018-12-15T03:54:09.331Z,46.20
2018-12-15T03:56:37.568Z,46.00
2018-12-15T03:59:05.992Z,48.20
2018-12-15T04:01:34.293Z,48.40
2018-12-15T04:04:02.540Z,47.50
2018-12-15T04:06:30.738Z,48.80
2018-12-15T04:08:59.000Z,48.70
2018-12-15T04:11:27.337Z,48.10
2018-12-15T04:13:55.644Z,48.40
2018-12-15T04:16:23.940Z,48.20
2018-12-15T04:18:52.120Z,48.40
2018-12-15T04:21:20.396Z,49.50
2018-12-15T04:23:48.600Z,49.60
2018-12-15T04:26:16.923Z,49.10
2018-12-15T04:28:45.163Z,49.60
2018-12-15T04:31:13.373Z,49.10
2018-12-15T04:33:41.766Z,48.70
2018-12-15T04:36:14.935Z,49.50
2018-12-15T04:38:43.196Z,50.50
2018-12-15T04:41:11.564Z,51.10
2018-12-15T04:43:40.115Z,51.70
2018-12-15T04:46:08.565Z,51.20
2018-12-15T04:48:37.123Z,50.70
2018-12-15T04:51:05.391Z,51.80
2018-12-15T04:53:33.615Z,51.50
2018-12-15T04:56:01.919Z,52.00
2018-12-15T04:58:30.120Z,50.80
2018-12-15T05:00:58.350Z,51.40
2018-12-15T05:03:26.615Z,51.20
2018-12-15T05:05:54.843Z,51.50
2018-12-15T05:08:23.152Z,51.00
2018-12-15T05:10:51.444Z,52.00
2018-12-15T05:13:19.677Z,52.40
2018-12-15T05:15:47.993Z,53.30
2018-12-15T05:18:18.239Z,53.50
2018-12-15T05:20:46.524Z,54.30
2018-12-15T05:23:14.703Z,54.10
2018-12-15T05:25:42.922Z,54.80
2018-12-15T05:28:11.474Z,54.20
2018-12-15T05:30:39.750Z,54.60
2018-12-15T05:33:08.060Z,54.60
2018-12-15T05:35:36.329Z,54.40
2018-12-15T05:38:04.611Z,55.50
2018-12-15T05:40:32.831Z,57.00
2018-12-15T05:43:01.140Z,57.00
2018-12-15T05:45:29.246Z,56.70
2018-12-15T05:47:57.463Z,57.80
2018-12-15T05:50:25.903Z,57.60
2018-12-15T05:52:54.165Z,57.30
2018-12-15T05:55:22.472Z,57.40
2018-12-15T05:57:50.737Z,57.60
2018-12-15T06:00:19.041Z,57.90
2018-12-15T06:02:47.430Z,57.30
2018-12-15T06:05:15.710Z,58.40
2018-12-15T06:07:44.073Z,58.10
2018-12-15T06:10:12.417Z,57.70
2018-12-15T06:12:40.686Z,57.70
2018-12-15T06:15:08.866Z,58.40
2018-12-15T06:17:37.103Z,58.40
2018-12-15T06:20:05.704Z,57.40
2018-12-15T06:22:34.065Z,57.70
2018-12-15T06:25:02.311Z,57.90
2018-12-15T06:27:30.550Z,58.60
2018-12-15T06:29:58.746Z,58.70
2018-12-15T06:32:26.968Z,59.90
2018-12-15T06:34:55.169Z,59.40
2018-12-15T06:37:23.391Z,59.30
2018-12-15T06:39:51.618Z,59.50
2018-12-15T06:42:19.948Z,60.00
2018-12-15T06:44:48.236Z,59.50
2018-12-15T06:47:16.527Z,59.90
2018-12-15T06:49:44.783Z,59.50
2018-12-15T06:52:13.051Z,59.20
2018-12-15T06:54:41.280Z,60.60
2018-12-15T06:57:09.719Z,61.50
2018-12-15T06:59:37.995Z,60.80
2018-12-15T07:02:06.299Z,61.00
2018-12-15T07:04:34.431Z,62.20
2018-12-15T07:07:02.748Z,62.70
2018-12-15T07:09:30.987Z,63.50
2018-12-15T07:11:59.439Z,63.40
2018-12-15T07:14:27.812Z,62.80
2018-12-15T07:16:56.071Z,62.50
2018-12-15T07:19:24.298Z,63.50
2018-12-15T07:21:52.525Z,64.00
2018-12-15T07:24:20.779Z,62.80
2018-12-15T07:26:49.003Z,63.50
2018-12-15T07:29:17.221Z,64.10
2018-12-15T07:31:45.434Z,63.70
2018-12-15T07:34:13.695Z,64.20
2018-12-15T07:36:41.995Z,64.50
2018-12-15T07:39:10.235Z,64.40
2018-12-15T07:41:38.511Z,63.80
2018-12-15T07:44:06.717Z,63.30
2018-12-15T07:46:34.963Z,63.10
2018-12-15T07:49:03.217Z,62.60
2018-12-15T07:51:31.488Z,62.90
2018-12-15T07:53:59.851Z,62.40
2018-12-15T07:56:28.146Z,61.40
2018-12-15T07:58:56.384Z,61.70
2018-12-15T08:01:24.791Z,61.90
2018-12-15T08:03:52.885Z,62.50
2018-12-15T08:06:21.119Z,62.90
2018-12-15T08:08:49.331Z,63.00
2018-12-15T08:11:22.939Z,62.40
2018-12-15T08:13:55.542Z,63.00
2018-12-15T08:16:24.348Z,62.80
2018-12-15T08:18:58.087Z,62.10
2018-12-15T08:21:22.855Z,61.80
2018-12-15T08:23:51.155Z,61.40
2018-12-15T08:26:19.393Z,61.30
2018-12-15T08:28:47.724Z,62.70
2018-12-15T08:31:15.973Z,64.10
2018-12-15T08:33:44.165Z,63.70
2018-12-15T08:36:12.427Z,64.10
2018-12-15T08:38:40.751Z,64.30
2018-12-15T08:41:09.087Z,64.10
2018-12-15T08:43:37.212Z,64.30
2018-12-15T08:46:07.404Z,64.80
2018-12-15T08:48:35.691Z,64.10
2018-12-15T08:51:03.953Z,64.90
2018-12-15T08:53:32.194Z,65.10
2018-12-15T08:56:00.427Z,65.70
2018-12-15T08:58:28.645Z,66.70
2018-12-15T09:00:56.996Z,67.40
2018-12-15T09:03:25.423Z,68.80
2018-12-15T09:05:53.768Z,69.60
2018-12-15T09:08:22.123Z,70.60
2018-12-15T09:10:50.374Z,70.00
2018-12-15T09:13:18.789Z,71.00
2018-12-15T09:15:47.066Z,71.30
2018-12-15T09:18:15.334Z,70.90
2018-12-15T09:20:43.624Z,70.40
2018-12-15T09:23:11.860Z,70.30
2018-12-15T09:25:40.212Z,69.90
2018-12-15T09:28:08.443Z,70.30
2018-12-15T09:30:36.681Z,72.10
2018-12-15T09:33:04.951Z,72.00
2018-12-15T09:35:33.240Z,72.00
2018-12-15T09:38:01.438Z,71.60
2018-12-15T09:40:29.767Z,70.40
2018-12-15T09:42:58.060Z,69.00
2018-12-15T09:45:26.423Z,68.80
2018-12-15T09:47:54.714Z,68.90
2018-12-15T09:50:23.017Z,68.90
2018-12-15T09:52:51.254Z,68.20
2018-12-15T09:55:19.542Z,67.30
2018-12-15T09:57:47.903Z,69.90
2018-12-15T10:00:16.143Z,72.20
2018-12-15T10:02:44.532Z,71.40
2018-12-15T10:05:12.826Z,70.30
2018-12-15T10:07:41.159Z,69.80
2018-12-15T10:10:09.584Z,69.50
2018-12-15T10:12:37.743Z,68.60
2018-12-15T10:15:06.225Z,68.50
2018-12-15T10:17:34.450Z,69.30
2018-12-15T10:20:02.703Z,69.80
2018-12-15T10:22:30.931Z,68.60
2018-12-15T10:24:59.135Z,69.60
2018-12-15T10:27:27.322Z,70.40
2018-12-15T10:30:01.220Z,71.20
2018-12-15T10:33:01.173Z,71.40
2018-12-15T10:35:29.459Z,71.30
2018-12-15T10:37:57.671Z,72.20
2018-12-15T10:40:25.968Z,73.00
2018-12-15T10:42:54.156Z,73.00
2018-12-15T10:45:23.029Z,73.60
2018-12-15T10:47:51.234Z,73.60
2018-12-15T10:50:19.562Z,73.50
2018-12-15T10:52:47.904Z,73.10
2018-12-15T10:55:16.265Z,73.70
2018-12-15T10:57:44.596Z,74.00
2018-12-15T11:00:18.958Z,73.80
2018-12-15T11:02:47.213Z,72.80
2018-12-15T11:05:15.465Z,71.90
2018-12-15T11:07:43.694Z,71.50
2018-12-15T11:10:12.137Z,71.20
2018-12-15T11:12:40.386Z,70.10
2018-12-15T11:15:09.027Z,70.50
2018-12-15T11:17:37.211Z,71.50
2018-12-15T11:20:06.129Z,71.80
2018-12-15T11:22:34.381Z,72.60
2018-12-15T11:25:02.644Z,71.50
2018-12-15T11:27:30.891Z,70.90
2018-12-15T11:29:59.212Z,70.20
2018-12-15T11:32:27.415Z,69.80
2018-12-15T11:34:55.636Z,69.90
2018-12-15T11:37:24.143Z,70.30
2018-12-15T11:39:52.367Z,70.50
2018-12-15T11:42:20.627Z,69.60
2018-12-15T11:44:48.839Z,69.20
2018-12-15T11:47:16.998Z,68.70
2018-12-15T11:49:45.195Z,68.00
2018-12-15T11:52:13.475Z,67.40
2018-12-15T11:54:41.718Z,66.70
2018-12-15T11:57:09.954Z,65.60
2018-12-15T11:59:38.176Z,66.60
2018-12-15T12:02:06.454Z,67.30
2018-12-15T12:04:34.723Z,67.40
2018-12-15T12:07:02.975Z,68.00
2018-12-15T12:09:31.215Z,67.50
2018-12-15T12:11:59.438Z,67.40
2018-12-15T12:14:27.790Z,68.30
2018-12-15T12:16:55.994Z,68.10
2018-12-15T12:19:50.149Z,68.60
2018-12-15T12:22:15.231Z,70.70
2018-12-15T12:24:43.532Z,71.20
2018-12-15T12:27:11.723Z,71.30
2018-12-15T12:29:40.091Z,71.40
2018-12-15T12:32:08.331Z,70.70
2018-12-15T12:34:36.660Z,70.30
2018-12-15T12:37:05.023Z,69.40
2018-12-15T12:39:33.271Z,68.80
2018-12-15T12:42:01.531Z,67.90
2018-12-15T12:44:29.761Z,68.00
2018-12-15T12:46:58.104Z,66.90
2018-12-15T12:49:26.331Z,66.80
2018-12-15T12:51:54.595Z,68.00
2018-12-15T12:54:23.195Z,68.50
2018-12-15T12:56:51.416Z,68.00
2018-12-15T12:59:19.685Z,67.70
2018-12-15T13:01:47.933Z,66.70
2018-12-15T13:04:16.222Z,67.50
2018-12-15T13:06:44.564Z,66.10
2018-12-15T13:09:12.863Z,66.40
2018-12-15T13:11:41.075Z,64.80
2018-12-15T13:14:09.267Z,64.40
2018-12-15T13:16:37.503Z,64.10
2018-12-15T13:19:05.642Z,64.10
2018-12-15T13:21:33.861Z,64.30
2018-12-15T13:24:02.115Z,64.70
2018-12-15T13:26:30.332Z,64.40
2018-12-15T13:28:58.561Z,64.80
2018-12-15T13:31:26.938Z,65.40
2018-12-15T13:33:55.142Z,66.20
2018-12-15T13:36:23.423Z,66.90
2018-12-15T13:38:51.649Z,67.00
2018-12-15T13:41:19.886Z,66.10
2018-12-15T13:43:48.082Z,66.30
2018-12-15T13:46:16.339Z,65.10
2018-12-15T13:48:44.617Z,65.80
2018-12-15T13:51:12.872Z,66.90
2018-12-15T13:53:41.150Z,67.80
2018-12-15T13:56:09.529Z,67.70
2018-12-15T13:58:37.851Z,68.50
2018-12-15T14:01:06.177Z,67.50
2018-12-15T14:03:34.411Z,66.70
2018-12-15T14:06:02.812Z,67.30
2018-12-15T14:08:31.020Z,68.30
2018-12-15T14:10:59.295Z,68.60
2018-12-15T14:13:27.671Z,67.90
2018-12-15T14:15:55.907Z,68.50
2018-12-15T14:18:24.167Z,69.80
2018-12-15T14:20:52.357Z,71.00
2018-12-15T14:23:20.637Z,70.20
2018-12-15T14:25:48.940Z,69.60
2018-12-15T14:28:17.155Z,70.40
2018-12-15T14:30:45.342Z,71.20
2018-12-15T14:33:13.595Z,71.80
2018-12-15T14:35:41.853Z,70.40
2018-12-15T14:38:10.071Z,70.00
2018-12-15T14:40:38.342Z,69.80
2018-12-15T14:43:06.490Z,69.70
2018-12-15T14:45:34.730Z,69.80
2018-12-15T14:48:03.035Z,70.20
2018-12-15T14:50:31.233Z,71.20
2018-12-15T14:52:59.503Z,71.10
2018-12-15T14:55:27.865Z,70.50
2018-12-15T14:57:56.116Z,70.00
2018-12-15T15:00:24.449Z,70.30
2018-12-15T15:02:52.874Z,71.20
2018-12-15T15:05:21.123Z,70.40
2018-12-15T15:07:49.344Z,71.40
2018-12-15T15:10:17.538Z,71.10
2018-12-15T15:12:45.782Z,71.20
2018-12-15T15:15:14.042Z,71.60
2018-12-15T15:17:42.351Z,71.40
2018-12-15T15:20:10.894Z,72.50
2018-12-15T15:22:39.101Z,74.00
2018-12-15T15:25:07.469Z,73.90
2018-12-15T15:27:35.671Z,74.00
2018-12-15T15:30:04.969Z,73.40
2018-12-15T15:32:33.386Z,73.50
2018-12-15T15:35:01.751Z,73.30
2018-12-15T15:37:29.951Z,72.20
2018-12-15T15:39:58.112Z,72.30
2018-12-15T15:42:26.340Z,72.70
2018-12-15T15:44:54.625Z,73.10
2018-12-15T15:47:22.912Z,73.50
2018-12-15T15:49:51.166Z,74.80
2018-12-15T15:52:19.405Z,75.00
2018-12-15T15:54:47.633Z,75.40
2018-12-15T15:57:16.009Z,75.60
2018-12-15T15:59:44.243Z,75.40
2018-12-15T16:02:12.574Z,75.90
2018-12-15T16:04:40.880Z,75.70
2018-12-15T16:07:09.172Z,76.40
2018-12-15T16:09:37.501Z,75.80
2018-12-15T16:12:05.745Z,75.90
2018-12-15T16:14:33.991Z,76.80
2018-12-15T16:17:02.283Z,77.30
2018-12-15T16:19:30.484Z,77.40
2018-12-15T16:21:58.701Z,76.70
2018-12-15T16:24:26.921Z,76.70
2018-12-15T16:26:55.191Z,76.90
2018-12-15T16:29:23.447Z,76.70
2018-12-15T16:31:51.703Z,76.70
2018-12-15T16:34:20.036Z,76.60
2018-12-15T16:36:48.269Z,76.80
2018-12-15T16:39:16.451Z,77.70
2018-12-15T16:41:44.691Z,77.70
2018-12-15T16:44:13.007Z,77.70
2018-12-15T16:46:41.256Z,77.60
2018-12-15T16:49:09.499Z,78.80
2018-12-15T16:51:37.804Z,78.70
2018-12-15T16:54:06.076Z,78.50
2018-12-15T16:56:34.360Z,78.90
2018-12-15T16:59:02.550Z,78.80
2018-12-15T17:01:30.717Z,79.10
2018-12-15T17:03:58.995Z,79.50
2018-12-15T17:06:27.211Z,79.30
2018-12-15T17:08:55.582Z,79.30
2018-12-15T17:11:23.881Z,80.10
2018-12-15T17:13:52.293Z,80.80
2018-12-15T17:16:20.671Z,81.20
2018-12-15T17:18:48.972Z,81.70
2018-12-15T17:21:17.256Z,82.20
2018-12-15T17:23:45.509Z,82.50
2018-12-15T17:26:13.736Z,83.50
2018-12-15T17:28:42.098Z,82.50
2018-12-15T17:31:10.375Z,83.00
2018-12-15T17:33:38.628Z,84.30
2018-12-15T17:36:06.987Z,84.40
2018-12-15T17:38:35.219Z,84.50
2018-12-15T17:41:03.397Z,84.60
2018-12-15T17:43:31.612Z,84.30
2018-12-15T17:45:59.819Z,84.40
2018-12-15T17:48:28.014Z,85.10
2018-12-15T17:50:56.318Z,85.50
2018-12-15T17:53:24.782Z,85.30
2018-12-15T17:55:53.040Z,85.60
2018-12-15T17:58:21.365Z,86.50
2018-12-15T18:00:49.515Z,86.30
2018-12-15T18:03:17.654Z,87.00
2018-12-15T18:05:46.029Z,87.10
2018-12-15T18:08:14.240Z,87.60
2018-12-15T18:10:42.492Z,88.10
2018-12-15T18:13:10.715Z,88.70
2018-12-15T18:15:38.991Z,89.10
2018-12-15T18:18:07.227Z,89.20
2018-12-15T18:20:36.096Z,88.70
2018-12-15T18:23:04.548Z,88.60
2018-12-15T18:25:32.787Z,88.00
2018-12-15T18:28:01.148Z,88.00
2018-12-15T18:30:29.471Z,88.20
2018-12-15T18:32:57.759Z,87.40
2018-12-15T18:35:26.106Z,87.30
2018-12-15T18:37:54.606Z,86.40
2018-12-15T18:40:25.459Z,86.40
2018-12-15T18:42:53.780Z,86.90
2018-12-15T18:45:21.965Z,86.70
2018-12-15T18:47:50.193Z,87.00
2018-12-15T18:50:18.350Z,87.10
2018-12-15T18:52:46.720Z,87.20
2018-12-15T18:55:14.949Z,87.30
2018-12-15T18:57:43.152Z,87.30
2018-12-15T19:00:12.072Z,87.00
2018-12-15T19:02:40.290Z,86.90
2018-12-15T19:05:09.079Z,86.70
2018-12-15T19:07:37.421Z,85.70
2018-12-15T19:10:06.405Z,85.60
2018-12-15T19:12:34.666Z,85.40
2018-12-15T19:15:02.891Z,84.80
2018-12-15T19:17:31.163Z,85.00
2018-12-15T19:19:59.395Z,84.40
2018-12-15T19:22:27.673Z,84.00
2018-12-15T19:24:56.667Z,84.20
2018-12-15T19:27:24.961Z,84.00
2018-12-15T19:29:53.192Z,84.20
2018-12-15T19:32:21.478Z,84.10
2018-12-15T19:34:52.562Z,84.20
2018-12-15T19:37:19.907Z,84.30
2018-12-15T19:39:48.384Z,84.40
2018-12-15T19:42:16.639Z,84.20
2018-12-15T19:44:44.884Z,84.90
2018-12-15T19:47:13.341Z,84.10
2018-12-15T19:49:41.625Z,84.30
2018-12-15T19:52:09.844Z,84.30
2018-12-15T19:54:38.212Z,84.30
2018-12-15T19:57:06.646Z,84.30
2018-12-15T19:59:34.819Z,84.00
2018-12-15T20:02:03.057Z,83.90
2018-12-15T20:04:31.486Z,83.50
2018-12-15T20:06:59.719Z,83.40
2018-12-15T20:09:27.884Z,83.30
2018-12-15T20:11:56.131Z,83.80
2018-12-15T20:14:24.604Z,84.10
2018-12-15T20:16:52.967Z,83.50
2018-12-15T20:19:21.331Z,83.50
2018-12-15T20:21:49.627Z,83.70
2018-12-15T20:24:18.030Z,83.70
2018-12-15T20:26:46.302Z,83.90
2018-12-15T20:29:14.630Z,83.20
2018-12-15T20:31:42.867Z,81.90
2018-12-15T20:34:11.115Z,82.20
2018-12-15T20:36:39.382Z,81.10
2018-12-15T20:39:08.114Z,81.60
2018-12-15T20:41:36.384Z,81.80
2018-12-15T20:44:04.638Z,82.00
2018-12-15T20:46:33.242Z,82.50
2018-12-15T20:49:01.620Z,81.60
2018-12-15T20:51:29.883Z,82.20
2018-12-15T20:53:58.115Z,81.80
2018-12-15T20:56:26.738Z,79.30
2018-12-15T20:58:54.953Z,79.90
2018-12-15T21:01:23.359Z,80.40
2018-12-15T21:03:51.733Z,79.20
2018-12-15T21:06:19.971Z,79.90
2018-12-15T21:08:48.163Z,79.40
2018-12-15T21:11:16.438Z,78.60
2018-12-15T21:13:44.704Z,78.80
2018-12-15T21:16:13.043Z,78.90
2018-12-15T21:18:41.276Z,78.00
2018-12-15T21:21:09.548Z,78.90
2018-12-15T21:23:37.736Z,78.60
2018-12-15T21:26:06.028Z,79.30
2018-12-15T21:28:35.292Z,79.00
2018-12-15T21:31:03.626Z,79.40
2018-12-15T21:33:31.957Z,79.10
2018-12-15T21:36:00.150Z,78.90
2018-12-15T21:38:28.337Z,79.80
2018-12-15T21:40:56.635Z,80.40
2018-12-15T21:43:24.922Z,80.20
2018-12-15T21:45:53.123Z,80.90
2018-12-15T21:48:21.393Z,80.90
2018-12-15T21:50:49.759Z,80.40
2018-12-15T21:53:17.983Z,80.40
2018-12-15T21:55:46.206Z,80.70
2018-12-15T21:58:14.431Z,81.00
2018-12-15T22:00:42.733Z,80.30
2018-12-15T22:03:10.878Z,81.00
2018-12-15T22:05:39.094Z,81.30
2018-12-15T22:08:07.432Z,81.30
2018-12-15T22:10:36.148Z,81.40
2018-12-15T22:13:04.553Z,80.90
2018-12-15T22:15:32.757Z,80.30
2018-12-15T22:18:00.988Z,80.50
2018-12-15T22:20:29.483Z,80.70
2018-12-15T22:22:57.703Z,80.70
2018-12-15T22:25:26.024Z,80.10
2018-12-15T22:27:54.254Z,80.00
2018-12-15T22:30:22.535Z,80.10
2018-12-15T22:32:50.710Z,79.60
2018-12-15T22:35:18.910Z,79.40
2018-12-15T22:37:47.188Z,78.80
2018-12-15T22:40:15.417Z,78.70
2018-12-15T22:42:43.789Z,78.40
2018-12-15T22:45:12.083Z,78.20
2018-12-15T22:47:40.266Z,77.50
2018-12-15T22:50:08.753Z,77.40
2018-12-15T22:52:36.999Z,77.20
2018-12-15T22:55:05.490Z,76.20
2018-12-15T22:57:33.758Z,75.50
2018-12-15T23:00:01.961Z,75.50
2018-12-15T23:02:30.173Z,74.60
2018-12-15T23:04:58.404Z,75.00
2018-12-15T23:07:26.615Z,74.60
2018-12-15T23:09:54.815Z,73.30
2018-12-15T23:12:23.138Z,74.80
2018-12-15T23:14:51.288Z,74.80
2018-12-15T23:17:19.684Z,74.30
2018-12-15T23:19:47.968Z,74.90
2018-12-15T23:22:16.515Z,73.60
2018-12-15T23:24:44.840Z,73.30
2018-12-15T23:27:13.095Z,72.10
2018-12-15T23:29:41.384Z,70.70
2018-12-15T23:32:09.637Z,70.20
2018-12-15T23:34:37.866Z,65.20
2018-12-15T23:37:06.165Z,64.90
2018-12-15T23:39:34.411Z,64.60
2018-12-15T23:42:02.605Z,65.80
2018-12-15T23:44:30.920Z,63.20
2018-12-15T23:46:59.121Z,61.20
2018-12-15T23:49:27.418Z,62.00
2018-12-15T23:51:55.809Z,63.30
2018-12-15T23:54:24.051Z,64.10
2018-12-15T23:56:52.276Z,63.40
2018-12-15T23:59:20.655Z,63.10
